createdAt,value
2019-02-23T00:02:36.534Z,8.10
2019-02-23T00:05:17.168Z,8.10
2019-02-23T00:07:57.982Z,8.20
2019-02-23T00:10:38.919Z,8.20
2019-02-23T00:13:19.732Z,8.10
2019-02-23T00:16:00.552Z,8.00
2019-02-23T00:18:41.569Z,7.90
2019-02-23T00:21:22.372Z,7.90
2019-02-23T00:23:50.907Z,7.90
2019-02-23T00:26:38.777Z,7.80
2019-02-23T00:29:26.610Z,7.80
2019-02-23T00:32:07.830Z,7.90
2019-02-23T00:34:48.558Z,8.00
2019-02-23T00:37:29.516Z,8.00
2019-02-23T00:40:10.603Z,8.00
2019-02-23T00:42:51.753Z,8.00
2019-02-23T00:45:32.470Z,8.00
2019-02-23T00:48:13.563Z,8.00
2019-02-23T00:50:54.183Z,8.10
2019-02-23T00:53:34.673Z,8.20
2019-02-23T00:56:03.152Z,8.10
2019-02-23T00:58:31.624Z,8.20
2019-02-23T01:01:00.098Z,8.10
2019-02-23T01:03:48.153Z,8.10
2019-02-23T01:06:35.955Z,8.10
2019-02-23T01:12:18.317Z,8.10
2019-02-23T01:14:46.779Z,8.20
2019-02-23T01:17:34.672Z,8.20
2019-02-23T01:20:22.666Z,8.20
2019-02-23T01:23:10.565Z,8.30
2019-02-23T01:25:51.460Z,8.40
2019-02-23T01:28:32.104Z,8.40
2019-02-23T01:31:12.900Z,8.30
2019-02-23T01:33:53.791Z,8.30
2019-02-23T01:36:34.476Z,8.40
2019-02-23T01:39:15.204Z,8.30
2019-02-23T01:41:55.816Z,8.10
2019-02-23T01:44:37.272Z,8.10
2019-02-23T01:47:18.349Z,8.00
2019-02-23T01:49:59.412Z,7.80
2019-02-23T01:52:40.554Z,7.80
2019-02-23T01:55:21.111Z,7.50
2019-02-23T01:58:01.389Z,7.40
2019-02-23T02:00:42.326Z,7.20
2019-02-23T02:03:22.898Z,7.20
2019-02-23T02:06:03.236Z,7.20
2019-02-23T02:08:43.853Z,7.20
2019-02-23T02:17:22.455Z,7.20
2019-02-23T02:20:10.991Z,7.00
2019-02-23T02:22:45.718Z,6.80
2019-02-23T02:25:26.375Z,6.80
2019-02-23T02:28:06.917Z,6.70
2019-02-23T02:30:47.991Z,6.70
2019-02-23T02:33:28.733Z,6.70
2019-02-23T02:36:09.411Z,6.70
2019-02-23T02:38:50.350Z,6.70
2019-02-23T02:41:31.415Z,6.70
2019-02-23T02:44:11.931Z,6.60
2019-02-23T02:46:53.206Z,6.70
2019-02-23T02:49:34.156Z,6.70
2019-02-23T02:52:14.983Z,6.60
2019-02-23T02:54:55.918Z,6.50
2019-02-23T02:57:36.967Z,6.50
2019-02-23T03:00:17.879Z,6.60
2019-02-23T03:02:58.751Z,6.60
2019-02-23T03:05:39.420Z,6.60
2019-02-23T03:08:19.980Z,6.60
2019-02-23T03:11:00.744Z,6.60
2019-02-23T03:13:41.404Z,6.50
2019-02-23T03:16:22.313Z,6.60
2019-02-23T03:19:02.769Z,6.50
2019-02-23T03:21:43.517Z,6.50
2019-02-23T03:24:24.411Z,6.50
2019-02-23T03:27:05.361Z,6.40
2019-02-23T03:29:46.827Z,6.50
2019-02-23T03:32:28.049Z,6.40
2019-02-23T03:35:08.933Z,6.50
2019-02-23T03:37:49.725Z,6.50
2019-02-23T03:40:30.904Z,6.50
2019-02-23T03:43:11.660Z,6.40
2019-02-23T03:45:52.623Z,6.50
2019-02-23T03:48:33.310Z,6.60
2019-02-23T03:51:14.056Z,6.70
2019-02-23T03:53:54.744Z,6.70
2019-02-23T03:56:35.315Z,6.80
2019-02-23T03:59:03.983Z,6.90
2019-02-23T04:01:51.806Z,6.80
2019-02-23T04:04:39.694Z,6.70
2019-02-23T04:07:19.918Z,6.60
2019-02-23T04:10:01.065Z,6.50
2019-02-23T04:12:41.955Z,6.50
2019-02-23T04:15:22.444Z,6.40
2019-02-23T04:18:03.172Z,6.20
2019-02-23T04:20:43.748Z,6.10
2019-02-23T04:23:12.221Z,6.20
2019-02-23T04:26:00.045Z,6.10
2019-02-23T04:28:47.866Z,6.20
2019-02-23T04:31:28.837Z,6.10
2019-02-23T04:33:57.368Z,6.20
2019-02-23T04:36:45.208Z,6.40
2019-02-23T04:39:32.994Z,6.50
2019-02-23T04:42:13.515Z,6.60
2019-02-23T04:44:55.534Z,6.60
2019-02-23T04:47:36.076Z,6.50
2019-02-23T04:50:16.565Z,6.10
2019-02-23T04:52:57.436Z,6.00
2019-02-23T04:55:37.904Z,6.00
2019-02-23T04:58:18.829Z,6.20
2019-02-23T05:00:59.620Z,6.20
2019-02-23T05:03:40.427Z,6.30
2019-02-23T05:06:08.964Z,6.10
2019-02-23T05:08:56.814Z,5.90
2019-02-23T05:11:44.681Z,6.10
2019-02-23T05:14:32.512Z,6.00
2019-02-23T05:17:13.656Z,5.90
2019-02-23T05:19:42.129Z,5.70
2019-02-23T05:22:30.023Z,5.80
2019-02-23T05:25:17.888Z,5.80
2019-02-23T05:27:58.584Z,5.80
2019-02-23T05:30:39.111Z,5.70
2019-02-23T05:33:20.053Z,5.50
2019-02-23T05:36:00.836Z,5.60
2019-02-23T05:38:41.530Z,5.50
2019-02-23T05:41:22.216Z,5.60
2019-02-23T05:43:50.724Z,5.50
2019-02-23T05:46:38.606Z,5.60
2019-02-23T05:49:26.405Z,5.60
2019-02-23T05:52:07.182Z,5.60
2019-02-23T05:54:48.048Z,5.60
2019-02-23T05:57:28.763Z,5.60
2019-02-23T06:00:09.445Z,5.60
2019-02-23T06:02:49.926Z,5.50
2019-02-23T06:05:30.755Z,5.40
2019-02-23T06:08:11.543Z,5.40
2019-02-23T06:10:52.136Z,5.40
2019-02-23T06:13:32.845Z,5.40
2019-02-23T06:16:13.592Z,5.30
2019-02-23T06:18:54.560Z,5.30
2019-02-23T06:21:35.538Z,5.30
2019-02-23T06:24:16.545Z,5.30
2019-02-23T06:26:57.545Z,5.30
2019-02-23T06:29:38.712Z,5.30
2019-02-23T06:32:19.581Z,5.20
2019-02-23T06:34:48.046Z,5.20
2019-02-23T06:37:35.958Z,5.20
2019-02-23T06:40:23.746Z,5.30
2019-02-23T06:43:04.968Z,5.30
2019-02-23T06:45:45.733Z,5.30
2019-02-23T06:48:26.561Z,5.30
2019-02-23T06:51:07.488Z,5.20
2019-02-23T06:53:35.970Z,5.10
2019-02-23T06:56:23.835Z,5.20
2019-02-23T06:59:04.300Z,5.20
2019-02-23T07:01:45.121Z,5.10
2019-02-23T07:04:25.844Z,5.10
2019-02-23T07:07:06.706Z,5.00
2019-02-23T07:09:47.022Z,5.00
2019-02-23T07:12:27.880Z,5.00
2019-02-23T07:15:08.778Z,5.10
2019-02-23T07:17:49.633Z,5.00
2019-02-23T07:20:30.405Z,5.10
2019-02-23T07:23:11.156Z,5.20
2019-02-23T07:25:39.645Z,5.20
2019-02-23T07:28:27.503Z,5.30
2019-02-23T07:31:08.513Z,5.40
2019-02-23T07:33:49.502Z,5.40
2019-02-23T07:36:30.168Z,5.40
2019-02-23T07:39:11.132Z,5.40
2019-02-23T07:41:51.796Z,5.40
2019-02-23T07:44:32.417Z,5.60
2019-02-23T07:47:13.470Z,5.60
2019-02-23T07:49:54.428Z,5.80
2019-02-23T07:52:35.633Z,5.90
2019-02-23T07:55:16.216Z,6.10
2019-02-23T07:57:44.704Z,6.30
2019-02-23T08:00:32.557Z,6.50
2019-02-23T08:03:13.245Z,6.60
2019-02-23T08:05:41.708Z,6.80
2019-02-23T08:08:29.521Z,7.10
2019-02-23T08:11:17.319Z,7.50
2019-02-23T08:13:58.558Z,7.60
2019-02-23T08:16:39.534Z,7.80
2019-02-23T08:19:20.177Z,8.00
2019-02-23T08:22:04.364Z,8.10
2019-02-23T08:24:32.831Z,8.10
2019-02-23T08:27:01.328Z,8.50
2019-02-23T08:29:49.417Z,8.40
2019-02-23T08:32:37.793Z,8.30
2019-02-23T08:35:18.663Z,8.50
2019-02-23T08:37:59.589Z,8.90
2019-02-23T08:40:40.655Z,9.00
2019-02-23T08:43:21.392Z,8.80
2019-02-23T08:46:01.966Z,9.00
2019-02-23T08:48:42.740Z,9.00
2019-02-23T08:51:23.363Z,9.40
2019-02-23T08:53:52.100Z,9.60
2019-02-23T08:56:39.935Z,9.60
2019-02-23T08:59:20.782Z,9.80
2019-02-23T09:02:02.114Z,10.00
2019-02-23T09:04:43.030Z,10.30
2019-02-23T09:07:24.131Z,10.50
2019-02-23T09:10:04.944Z,10.60
2019-02-23T09:12:45.840Z,10.50
2019-02-23T09:15:14.479Z,10.40
2019-02-23T09:18:02.270Z,10.60
2019-02-23T09:20:43.201Z,10.90
2019-02-23T09:23:23.989Z,11.40
2019-02-23T09:26:04.893Z,11.10
2019-02-23T09:28:33.401Z,10.90
2019-02-23T09:31:21.237Z,11.00
2019-02-23T09:34:09.062Z,11.20
2019-02-23T09:36:49.371Z,11.10
2019-02-23T09:39:30.356Z,11.20
2019-02-23T09:42:11.434Z,11.30
2019-02-23T09:44:40.208Z,11.40
2019-02-23T09:47:28.077Z,11.40
2019-02-23T09:50:08.544Z,11.60
2019-02-23T09:52:50.358Z,11.50
2019-02-23T09:55:30.730Z,11.70
2019-02-23T09:58:11.871Z,11.80
2019-02-23T10:00:52.565Z,11.90
2019-02-23T10:03:21.630Z,12.20
2019-02-23T10:06:09.589Z,12.40
2019-02-23T10:08:50.190Z,12.50
2019-02-23T10:11:18.655Z,12.00
2019-02-23T10:14:07.477Z,12.00
2019-02-23T10:16:55.999Z,11.90
2019-02-23T10:19:36.867Z,12.50
2019-02-23T10:22:05.367Z,12.60
2019-02-23T10:24:53.797Z,12.50
2019-02-23T10:27:34.919Z,12.40
2019-02-23T10:30:15.995Z,12.40
2019-02-23T10:32:44.655Z,12.00
2019-02-23T10:35:32.501Z,12.40
2019-02-23T10:38:20.382Z,12.00
2019-02-23T10:41:00.688Z,12.50
2019-02-23T10:43:41.625Z,12.20
2019-02-23T10:46:22.541Z,12.50
2019-02-23T10:49:03.298Z,13.00
2019-02-23T10:51:44.315Z,12.40
2019-02-23T10:54:25.382Z,12.50
2019-02-23T10:57:06.410Z,12.30
2019-02-23T10:59:47.456Z,12.50
2019-02-23T11:02:27.772Z,12.40
2019-02-23T11:04:56.320Z,12.60
2019-02-23T11:07:44.215Z,12.50
2019-02-23T11:10:32.046Z,12.60
2019-02-23T11:13:12.514Z,12.90
2019-02-23T11:15:53.171Z,12.80
2019-02-23T11:18:33.833Z,12.60
2019-02-23T11:21:02.434Z,13.10
2019-02-23T11:23:50.250Z,13.60
2019-02-23T11:26:38.132Z,13.30
2019-02-23T11:29:18.559Z,13.00
2019-02-23T11:31:59.355Z,13.10
2019-02-23T11:34:40.077Z,13.30
2019-02-23T11:37:08.581Z,13.00
2019-02-23T11:39:56.483Z,12.60
2019-02-23T11:42:37.240Z,12.70
2019-02-23T11:45:18.057Z,13.30
2019-02-23T11:47:59.112Z,13.50
2019-02-23T11:50:40.135Z,13.40
2019-02-23T11:53:20.562Z,13.30
2019-02-23T11:56:01.268Z,13.60
2019-02-23T11:58:42.358Z,13.90
2019-02-23T12:01:23.355Z,14.30
2019-02-23T12:04:04.359Z,14.20
2019-02-23T12:06:45.069Z,14.50
2019-02-23T12:09:26.072Z,14.80
2019-02-23T12:12:07.974Z,14.60
2019-02-23T12:14:48.587Z,14.40
2019-02-23T12:17:29.312Z,14.40
2019-02-23T12:20:09.953Z,14.20
2019-02-23T12:22:38.527Z,14.80
2019-02-23T12:25:26.474Z,15.30
2019-02-23T12:27:54.974Z,15.60
2019-02-23T12:30:42.855Z,15.70
2019-02-23T12:33:23.657Z,15.80
2019-02-23T12:36:05.317Z,15.90
2019-02-23T12:38:46.245Z,15.40
2019-02-23T12:41:14.770Z,15.60
2019-02-23T12:44:02.659Z,16.00
2019-02-23T12:46:43.832Z,16.30
2019-02-23T12:49:24.697Z,16.50
2019-02-23T12:52:05.509Z,16.20
2019-02-23T12:54:45.925Z,16.10
2019-02-23T12:57:27.859Z,15.70
2019-02-23T13:00:09.721Z,15.80
2019-02-23T13:02:51.134Z,16.00
2019-02-23T13:05:31.633Z,15.70
2019-02-23T13:08:12.498Z,16.10
2019-02-23T13:13:52.137Z,16.10
2019-02-23T13:16:33.149Z,15.70
2019-02-23T13:19:14.080Z,16.10
2019-02-23T13:21:54.863Z,16.00
2019-02-23T13:24:35.917Z,15.80
2019-02-23T13:27:16.449Z,15.90
2019-02-23T13:30:24.890Z,15.70
2019-02-23T13:33:33.399Z,15.90
2019-02-23T13:42:17.548Z,15.50
2019-02-23T13:44:58.246Z,15.60
2019-02-23T13:47:38.871Z,15.90
2019-02-23T13:50:19.333Z,15.50
2019-02-23T13:53:00.383Z,15.40
2019-02-23T13:55:43.693Z,15.30
2019-02-23T13:58:33.185Z,15.40
2019-02-23T14:04:28.588Z,15.80
2019-02-23T14:07:09.218Z,15.70
2019-02-23T14:09:50.614Z,15.50
2019-02-23T14:12:32.970Z,15.60
2019-02-23T14:15:13.330Z,15.70
2019-02-23T14:17:54.289Z,15.20
2019-02-23T14:20:36.335Z,15.90
2019-02-23T14:23:17.063Z,16.50
2019-02-23T14:25:58.936Z,16.80
2019-02-23T14:28:39.851Z,16.80
2019-02-23T14:31:20.794Z,16.50
2019-02-23T14:34:01.399Z,16.70
2019-02-23T14:36:42.193Z,16.10
2019-02-23T14:39:23.253Z,16.20
2019-02-23T14:42:04.213Z,15.80
2019-02-23T14:44:45.097Z,16.20
2019-02-23T14:50:53.369Z,16.50
2019-02-23T14:53:34.263Z,16.40
2019-02-23T14:56:15.399Z,16.70
2019-02-23T14:59:24.658Z,16.70
2019-02-23T15:02:31.886Z,16.50
2019-02-23T15:05:12.966Z,16.20
2019-02-23T15:07:53.629Z,16.10
2019-02-23T15:10:34.400Z,16.40
2019-02-23T15:13:15.179Z,16.80
2019-02-23T15:15:56.142Z,16.40
2019-02-23T15:19:05.119Z,16.20
2019-02-23T15:25:12.570Z,15.30
2019-02-23T15:27:45.180Z,15.40
2019-02-23T15:30:25.939Z,15.70
2019-02-23T15:33:34.526Z,15.60
2019-02-23T15:36:41.683Z,15.50
2019-02-23T15:39:48.907Z,15.60
2019-02-23T15:42:29.964Z,15.30
2019-02-23T15:45:10.339Z,15.10
2019-02-23T15:47:51.039Z,15.10
2019-02-23T15:50:31.542Z,14.90
2019-02-23T15:53:12.341Z,14.90
2019-02-23T15:55:53.070Z,15.00
2019-02-23T15:58:21.604Z,14.70
2019-02-23T16:01:09.423Z,14.40
2019-02-23T16:03:57.235Z,14.20
2019-02-23T16:06:38.269Z,14.20
2019-02-23T16:09:19.083Z,13.90
2019-02-23T16:11:59.652Z,13.90
2019-02-23T16:14:28.194Z,13.90
2019-02-23T16:17:16.182Z,14.00
2019-02-23T16:20:04.605Z,13.60
2019-02-23T16:22:44.905Z,13.50
2019-02-23T16:25:37.771Z,13.50
2019-02-23T16:27:56.238Z,13.60
2019-02-23T16:30:44.057Z,13.50
2019-02-23T16:33:31.943Z,13.50
2019-02-23T16:36:12.424Z,13.50
2019-02-23T16:38:52.908Z,13.50
2019-02-23T16:41:33.741Z,13.20
2019-02-23T16:44:14.180Z,12.70
2019-02-23T16:46:54.966Z,12.50
2019-02-23T16:49:35.823Z,12.50
2019-02-23T16:52:16.767Z,12.60
2019-02-23T16:54:57.759Z,12.60
2019-02-23T16:57:38.665Z,12.40
2019-02-23T17:00:19.782Z,12.50
2019-02-23T17:03:00.619Z,12.40
2019-02-23T17:05:41.498Z,12.20
2019-02-23T17:08:22.125Z,12.00
2019-02-23T17:10:50.633Z,11.90
2019-02-23T17:13:38.647Z,11.70
2019-02-23T17:16:19.603Z,11.60
2019-02-23T17:19:00.255Z,11.50
2019-02-23T17:21:41.016Z,11.30
2019-02-23T17:24:21.646Z,11.20
2019-02-23T17:27:02.652Z,11.10
2019-02-23T17:29:43.236Z,11.00
2019-02-23T17:32:24.260Z,11.00
2019-02-23T17:35:04.633Z,10.90
2019-02-23T17:37:42.285Z,10.80
2019-02-23T17:40:10.791Z,10.70
2019-02-23T17:42:58.606Z,10.80
2019-02-23T17:45:46.425Z,10.70
2019-02-23T17:48:27.519Z,10.60
2019-02-23T17:51:08.176Z,10.40
2019-02-23T17:53:49.271Z,10.30
2019-02-23T17:56:30.431Z,10.30
2019-02-23T17:59:11.772Z,10.30
2019-02-23T18:01:53.056Z,10.20
2019-02-23T18:10:33.566Z,10.40
2019-02-23T18:13:14.381Z,10.20
2019-02-23T18:15:55.289Z,10.00
2019-02-23T18:18:35.733Z,10.10
2019-02-23T18:21:16.166Z,10.00
2019-02-23T18:23:57.047Z,9.90
2019-02-23T18:26:37.691Z,9.90
2019-02-23T18:29:18.587Z,9.90
2019-02-23T18:31:59.504Z,9.90
2019-02-23T18:34:40.363Z,9.80
2019-02-23T18:37:21.083Z,9.60
2019-02-23T18:40:01.890Z,9.60
2019-02-23T18:42:42.404Z,9.50
2019-02-23T18:45:23.407Z,9.40
2019-02-23T18:48:04.203Z,9.40
2019-02-23T18:50:44.787Z,9.40
2019-02-23T18:53:25.517Z,9.40
2019-02-23T18:56:06.394Z,9.40
2019-02-23T18:58:48.440Z,9.20
2019-02-23T19:01:29.033Z,9.10
2019-02-23T19:04:09.600Z,9.00
2019-02-23T19:06:50.302Z,9.00
2019-02-23T19:09:30.938Z,9.00
2019-02-23T19:12:11.765Z,9.00
2019-02-23T19:14:52.118Z,9.00
2019-02-23T19:17:33.191Z,9.00
2019-02-23T19:20:14.305Z,8.80
2019-02-23T19:22:55.224Z,8.90
2019-02-23T19:25:36.139Z,9.00
2019-02-23T19:28:16.983Z,9.00
2019-02-23T19:30:57.336Z,9.00
2019-02-23T19:33:38.333Z,9.00
2019-02-23T19:36:18.837Z,9.10
2019-02-23T19:38:47.334Z,9.20
2019-02-23T19:41:35.314Z,9.30
2019-02-23T19:44:23.134Z,9.40
2019-02-23T19:47:10.939Z,9.50
2019-02-23T19:50:01.974Z,9.40
2019-02-23T19:55:50.487Z,9.40
2019-02-23T19:58:31.108Z,9.30
2019-02-23T20:01:12.102Z,9.20
2019-02-23T20:03:52.596Z,9.30
2019-02-23T20:06:33.605Z,9.30
2019-02-23T20:09:14.665Z,9.20
2019-02-23T20:11:55.286Z,9.20
2019-02-23T20:14:36.363Z,9.10
2019-02-23T20:17:17.255Z,9.20
2019-02-23T20:19:58.082Z,9.20
2019-02-23T20:22:38.997Z,9.10
2019-02-23T20:25:19.716Z,9.10
2019-02-23T20:27:48.213Z,9.20
2019-02-23T20:30:16.769Z,9.10
2019-02-23T20:33:04.662Z,9.00
2019-02-23T20:35:45.096Z,8.90
2019-02-23T20:38:26.825Z,9.10
2019-02-23T20:41:08.037Z,9.00
2019-02-23T20:43:48.314Z,9.10
2019-02-23T20:46:29.075Z,9.20
2019-02-23T20:49:09.866Z,9.20
2019-02-23T20:51:50.552Z,9.00
2019-02-23T20:54:31.414Z,9.00
2019-02-23T20:57:14.018Z,9.00
2019-02-23T20:59:55.059Z,8.80
2019-02-23T21:02:35.844Z,8.90
2019-02-23T21:05:16.573Z,9.00
2019-02-23T21:07:57.367Z,9.00
2019-02-23T21:10:38.028Z,9.00
2019-02-23T21:13:19.108Z,8.60
2019-02-23T21:15:59.695Z,8.60
2019-02-23T21:18:40.503Z,8.60
2019-02-23T21:21:21.507Z,8.60
2019-02-23T21:24:02.490Z,8.50
2019-02-23T21:26:43.375Z,8.50
2019-02-23T21:29:24.075Z,8.40
2019-02-23T21:32:06.464Z,8.40
2019-02-23T21:34:35.001Z,8.40
2019-02-23T21:37:22.796Z,8.30
2019-02-23T21:40:12.038Z,8.20
2019-02-23T21:42:53.528Z,8.40
2019-02-23T21:45:34.460Z,8.50
2019-02-23T21:48:15.385Z,8.40
2019-02-23T21:50:56.184Z,8.40
2019-02-23T21:53:37.111Z,8.40
2019-02-23T21:56:17.921Z,8.40
2019-02-23T21:58:58.638Z,8.40
2019-02-23T22:01:39.654Z,8.50
2019-02-23T22:04:20.301Z,8.30
2019-02-23T22:07:01.384Z,8.20
2019-02-23T22:09:42.204Z,8.30
2019-02-23T22:12:23.221Z,8.30
2019-02-23T22:15:04.087Z,8.20
2019-02-23T22:17:44.889Z,8.20
2019-02-23T22:20:25.833Z,8.20
2019-02-23T22:22:54.739Z,8.10
2019-02-23T22:25:43.812Z,8.10
2019-02-23T22:28:24.574Z,8.20
2019-02-23T22:31:05.211Z,8.10
2019-02-23T22:33:46.016Z,8.10
2019-02-23T22:36:14.478Z,8.10
2019-02-23T22:39:02.285Z,8.00
2019-02-23T22:41:50.075Z,7.80
2019-02-23T22:44:31.001Z,7.80
2019-02-23T22:46:59.540Z,7.80
2019-02-23T22:49:47.412Z,7.80
2019-02-23T22:52:35.642Z,7.90
2019-02-23T22:55:16.559Z,7.80
2019-02-23T22:57:59.282Z,7.60
2019-02-23T23:00:41.769Z,7.70
2019-02-23T23:03:23.109Z,7.80
2019-02-23T23:06:03.981Z,7.70
2019-02-23T23:08:44.948Z,7.60
2019-02-23T23:11:25.898Z,7.70
2019-02-23T23:14:06.616Z,7.80
2019-02-23T23:16:47.415Z,7.80
2019-02-23T23:19:28.305Z,7.70
2019-02-23T23:22:09.152Z,7.60
2019-02-23T23:24:50.239Z,7.60
2019-02-23T23:27:30.939Z,7.60
2019-02-23T23:30:11.681Z,7.60
2019-02-23T23:32:52.564Z,7.40
2019-02-23T23:35:33.445Z,7.60
2019-02-23T23:38:14.224Z,7.40
2019-02-23T23:40:54.992Z,7.50
2019-02-23T23:43:36.074Z,7.30
2019-02-23T23:46:14.908Z,7.30
2019-02-23T23:49:02.772Z,7.00
2019-02-23T23:51:50.667Z,7.10
2019-02-23T23:54:31.395Z,7.20
2019-02-23T23:57:12.068Z,7.00
2019-02-23T23:59:53.165Z,7.20
